Time,TemperatureF,DewpointF,PressureIn,WindDirection,WindDirectionDegrees,WindSpeedMPH,WindSpeedGustMPH,Humidity,HourlyPrecipIn,Conditions,Clouds,dailyrainin,SoftwareType,DateUTC
2013-07-25 00:12:00,60.0,48.0,-100.00,ESE,116,0.0,2.0,65,-99.99,,,-99.99,,2013-07-25 07:12:00,
2013-07-25 00:22:00,60.0,48.0,-100.00,ESE,116,0.0,2.0,65,-99.99,,,-99.99,,2013-07-25 07:22:00,
2013-07-25 00:43:00,60.0,46.0,-100.00,South,170,1.0,3.0,60,-99.99,,,-99.99,,2013-07-25 07:43:00,
2013-07-25 00:53:00,60.0,46.0,-100.00,South,170,1.0,3.0,60,-99.99,,,-99.99,,2013-07-25 07:53:00,
2013-07-25 01:12:00,60.0,44.0,-100.00,East,98,1.0,4.0,56,-99.99,,,-99.99,,2013-07-25 08:12:00,
2013-07-25 01:52:00,60.0,44.0,-100.00,East,97,1.0,3.0,55,-99.99,,,-99.99,,2013-07-25 08:52:00,
2013-07-25 02:02:00,60.0,44.0,-100.00,East,97,1.0,3.0,55,-99.99,,,-99.99,,2013-07-25 09:02:00,
2013-07-25 02:22:00,60.0,42.0,-100.00,ENE,73,1.0,3.0,52,-99.99,,,-99.99,,2013-07-25 09:22:00,
2013-07-25 02:33:00,60.0,41.0,-100.00,SE,143,1.0,2.0,49,-99.99,,,-99.99,,2013-07-25 09:33:00,
2013-07-25 02:43:00,62.0,40.0,-100.00,South,172,2.0,3.0,45,-99.99,,,-99.99,,2013-07-25 09:43:00,
2013-07-25 02:52:00,62.0,40.0,-100.00,South,172,2.0,3.0,45,-99.99,,,-99.99,,2013-07-25 09:52:00,
2013-07-25 03:12:00,65.0,39.0,-100.00,SSW,208,1.0,3.0,38,-99.99,,,-99.99,,2013-07-25 10:12:00,
2013-07-25 03:22:00,66.0,39.0,-100.00,WNW,300,1.0,4.0,37,-99.99,,,-99.99,,2013-07-25 10:22:00,
2013-07-25 03:53:00,63.0,42.0,-100.00,South,171,4.0,8.0,46,-99.99,,,-99.99,,2013-07-25 10:53:00,
2013-07-25 04:02:00,62.0,42.0,-100.00,ENE,60,1.0,2.0,48,-99.99,,,-99.99,,2013-07-25 11:02:00,
2013-07-25 04:12:00,62.0,43.0,-100.00,SSE,159,1.0,3.0,49,-99.99,,,-99.99,,2013-07-25 11:12:00,
2013-07-25 04:22:00,61.0,42.0,-100.00,South,169,1.0,3.0,50,-99.99,,,-99.99,,2013-07-25 11:22:00,
2013-07-25 04:32:00,61.0,42.0,-100.00,SSE,163,1.0,5.0,49,-99.99,,,-99.99,,2013-07-25 11:32:00,
2013-07-25 04:43:00,65.0,39.0,-100.00,NW,324,1.0,4.0,39,-99.99,,,-99.99,,2013-07-25 11:43:00,
2013-07-25 04:52:00,65.0,39.0,-100.00,NW,324,1.0,4.0,39,-99.99,,,-99.99,,2013-07-25 11:52:00,
2013-07-25 05:32:00,65.0,39.0,-100.00,SSE,164,2.0,3.0,38,-99.99,,,-99.99,,2013-07-25 12:32:00,
2013-07-25 05:44:00,62.0,41.0,-100.00,East,92,1.0,4.0,46,-99.99,,,-99.99,,2013-07-25 12:44:00,
2013-07-25 05:53:00,62.0,41.0,-100.00,East,92,1.0,4.0,46,-99.99,,,-99.99,,2013-07-25 12:53:00,
2013-07-25 06:02:00,62.0,40.0,-100.00,SE,143,1.0,3.0,45,-99.99,,,-99.99,,2013-07-25 13:02:00,
2013-07-25 06:12:00,62.0,42.0,-100.00,ESE,117,1.0,2.0,47,-99.99,,,-99.99,,2013-07-25 13:12:00,
2013-07-25 06:22:00,61.0,41.0,-100.00,East,101,1.0,3.0,47,-99.99,,,-99.99,,2013-07-25 13:22:00,
2013-07-25 06:32:00,61.0,41.0,-100.00,SE,135,0.0,2.0,48,-99.99,,,-99.99,,2013-07-25 13:32:00,
2013-07-25 06:42:00,61.0,41.0,-100.00,ESE,118,0.0,2.0,47,-99.99,,,-99.99,,2013-07-25 13:42:00,
2013-07-25 06:52:00,61.0,40.0,-100.00,East,89,1.0,3.0,45,-99.99,,,-99.99,,2013-07-25 13:52:00,
2013-07-25 07:02:00,62.0,40.0,-100.00,East,99,2.0,5.0,44,-99.99,,,-99.99,,2013-07-25 14:02:00,
2013-07-25 07:43:00,67.0,46.0,-100.00,East,94,1.0,3.0,46,-99.99,,,-99.99,,2013-07-25 14:43:00,
2013-07-25 07:53:00,70.0,47.0,-100.00,East,85,1.0,2.0,44,-99.99,,,-99.99,,2013-07-25 14:53:00,
2013-07-25 08:12:00,72.0,49.0,-100.00,ENE,63,0.0,2.0,44,-99.99,,,-99.99,,2013-07-25 15:12:00,
2013-07-25 08:22:00,76.0,49.0,-100.00,North,-999,0.0,0.0,38,-99.99,,,-99.99,,2013-07-25 15:22:00,
2013-07-25 08:32:00,78.0,46.0,-100.00,SE,130,0.0,2.0,32,-99.99,,,-99.99,,2013-07-25 15:32:00,
2013-07-25 08:43:00,78.0,44.0,-100.00,NW,320,3.0,7.0,30,-99.99,,,-99.99,,2013-07-25 15:43:00,
2013-07-25 08:52:00,78.0,44.0,-100.00,NW,320,3.0,7.0,30,-99.99,,,-99.99,,2013-07-25 15:52:00,
2013-07-25 09:02:00,78.0,43.0,-100.00,NNW,327,5.0,8.0,29,-99.99,,,-99.99,,2013-07-25 16:02:00,
2013-07-25 09:12:00,79.0,45.0,-100.00,NW,318,4.0,8.0,30,-99.99,,,-99.99,,2013-07-25 16:12:00,
2013-07-25 09:32:00,80.0,45.0,-100.00,WNW,287,4.0,6.0,29,-99.99,,,-99.99,,2013-07-25 16:32:00,
2013-07-25 10:02:00,80.0,45.0,-100.00,NW,319,4.0,7.0,29,-99.99,,,-99.99,,2013-07-25 17:02:00,
2013-07-25 10:12:00,80.0,46.0,-100.00,WNW,295,3.0,7.0,30,-99.99,,,-99.99,,2013-07-25 17:12:00,
2013-07-25 10:22:00,81.0,46.0,-100.00,West,281,4.0,8.0,29,-99.99,,,-99.99,,2013-07-25 17:22:00,
2013-07-25 10:32:00,82.0,46.0,-100.00,WSW,257,4.0,9.0,28,-99.99,,,-99.99,,2013-07-25 17:32:00,
2013-07-25 10:43:00,83.0,46.0,-100.00,West,273,4.0,11.0,27,-99.99,,,-99.99,,2013-07-25 17:43:00,
2013-07-25 10:53:00,83.0,46.0,-100.00,West,273,4.0,11.0,27,-99.99,,,-99.99,,2013-07-25 17:53:00,
2013-07-25 11:02:00,81.0,45.0,-100.00,SW,218,3.0,8.0,28,-99.99,,,-99.99,,2013-07-25 18:02:00,
2013-07-25 11:12:00,82.0,45.0,-100.00,SSW,212,4.0,8.0,27,-99.99,,,-99.99,,2013-07-25 18:12:00,
2013-07-25 11:42:00,84.0,45.0,-100.00,WSW,246,3.0,8.0,26,-99.99,,,-99.99,,2013-07-25 18:42:00,
2013-07-25 11:52:00,84.0,45.0,-100.00,WSW,246,3.0,8.0,26,-99.99,,,-99.99,,2013-07-25 18:52:00,
2013-07-25 12:12:00,84.0,45.0,-100.00,SW,216,5.0,11.0,26,-99.99,,,-99.99,,2013-07-25 19:12:00,
2013-07-25 12:22:00,85.0,45.0,-100.00,SW,235,4.0,11.0,25,-99.99,,,-99.99,,2013-07-25 19:22:00,
2013-07-25 12:33:00,86.0,46.0,-100.00,WSW,248,4.0,10.0,25,-99.99,,,-99.99,,2013-07-25 19:33:00,
2013-07-25 12:42:00,83.0,46.0,-100.00,West,267,4.0,9.0,27,-99.99,,,-99.99,,2013-07-25 19:42:00,
2013-07-25 12:52:00,83.0,46.0,-100.00,West,267,4.0,9.0,27,-99.99,,,-99.99,,2013-07-25 19:52:00,
2013-07-25 13:02:00,84.0,45.0,-100.00,WSW,256,4.0,9.0,26,-99.99,,,-99.99,,2013-07-25 20:02:00,
2013-07-25 13:22:00,84.0,46.0,-100.00,SW,234,4.0,8.0,27,-99.99,,,-99.99,,2013-07-25 20:22:00,
2013-07-25 13:32:00,85.0,46.0,-100.00,SW,224,6.0,12.0,26,-99.99,,,-99.99,,2013-07-25 20:32:00,
2013-07-25 13:43:00,83.0,48.0,-100.00,SW,214,6.0,13.0,30,-99.99,,,-99.99,,2013-07-25 20:43:00,
2013-07-25 13:53:00,83.0,48.0,-100.00,SW,214,6.0,13.0,30,-99.99,,,-99.99,,2013-07-25 20:53:00,
2013-07-25 14:02:00,81.0,47.0,-100.00,West,269,6.0,12.0,31,-99.99,,,-99.99,,2013-07-25 21:02:00,
2013-07-25 14:12:00,81.0,48.0,-100.00,WSW,244,5.0,11.0,32,-99.99,,,-99.99,,2013-07-25 21:12:00,
2013-07-25 14:32:00,79.0,49.0,-100.00,NW,318,8.0,13.0,35,-99.99,,,-99.99,,2013-07-25 21:32:00,
2013-07-25 14:44:00,79.0,50.0,-100.00,NNW,328,7.0,13.0,37,-99.99,,,-99.99,,2013-07-25 21:44:00,
2013-07-25 14:52:00,80.0,52.0,-100.00,North,351,6.0,11.0,38,-99.99,,,-99.99,,2013-07-25 21:52:00,
2013-07-25 15:02:00,81.0,52.0,-100.00,NNE,25,5.0,11.0,37,-99.99,,,-99.99,,2013-07-25 22:02:00,
2013-07-25 15:12:00,81.0,52.0,-100.00,WNW,302,5.0,13.0,36,-99.99,,,-99.99,,2013-07-25 22:12:00,
2013-07-25 15:32:00,80.0,51.0,-100.00,SSW,211,6.0,10.0,37,-99.99,,,-99.99,,2013-07-25 22:32:00,
2013-07-25 15:52:00,80.0,52.0,-100.00,SW,236,4.0,7.0,38,-99.99,,,-99.99,,2013-07-25 22:52:00,
2013-07-25 16:02:00,80.0,51.0,-100.00,West,276,5.0,12.0,37,-99.99,,,-99.99,,2013-07-25 23:02:00,
2013-07-25 16:12:00,80.0,52.0,-100.00,West,272,3.0,10.0,38,-99.99,,,-99.99,,2013-07-25 23:12:00,
2013-07-25 16:32:00,79.0,52.0,-100.00,WSW,258,3.0,10.0,39,-99.99,,,-99.99,,2013-07-25 23:32:00,
2013-07-25 16:43:00,79.0,53.0,-100.00,WNW,293,3.0,7.0,40,-99.99,,,-99.99,,2013-07-25 23:43:00,
2013-07-25 16:52:00,79.0,53.0,-100.00,WNW,293,3.0,7.0,40,-99.99,,,-99.99,,2013-07-25 23:52:00,
2013-07-25 17:02:00,79.0,52.0,-100.00,NW,308,4.0,7.0,39,-99.99,,,-99.99,,2013-07-26 00:02:00,
2013-07-25 17:32:00,79.0,51.0,-100.00,WNW,302,3.0,7.0,38,-99.99,,,-99.99,,2013-07-26 00:32:00,
2013-07-25 17:43:00,80.0,51.0,-100.00,WNW,288,3.0,5.0,36,-99.99,,,-99.99,,2013-07-26 00:43:00,
2013-07-25 17:52:00,80.0,51.0,-100.00,West,263,4.0,8.0,36,-99.99,,,-99.99,,2013-07-26 00:52:00,
2013-07-25 18:02:00,80.0,51.0,-100.00,West,273,3.0,5.0,37,-99.99,,,-99.99,,2013-07-26 01:02:00,
2013-07-25 18:12:00,81.0,51.0,-100.00,West,262,3.0,7.0,35,-99.99,,,-99.99,,2013-07-26 01:12:00,
2013-07-25 18:22:00,80.0,51.0,-100.00,WNW,294,4.0,7.0,36,-99.99,,,-99.99,,2013-07-26 01:22:00,
2013-07-25 18:32:00,78.0,50.0,-100.00,WNW,294,3.0,5.0,38,-99.99,,,-99.99,,2013-07-26 01:32:00,
2013-07-25 18:43:00,78.0,50.0,-100.00,West,271,2.0,5.0,38,-99.99,,,-99.99,,2013-07-26 01:43:00,
2013-07-25 18:52:00,78.0,50.0,-100.00,West,271,2.0,5.0,38,-99.99,,,-99.99,,2013-07-26 01:52:00,
2013-07-25 19:11:00,78.0,50.0,-100.00,WNW,286,2.0,5.0,37,-99.99,,,-99.99,,2013-07-26 02:11:00,
2013-07-25 19:21:00,77.0,49.0,-100.00,WSW,248,1.0,2.0,38,-99.99,,,-99.99,,2013-07-26 02:21:00,
2013-07-25 19:32:00,76.0,49.0,-100.00,West,276,1.0,2.0,39,-99.99,,,-99.99,,2013-07-26 02:32:00,
2013-07-25 19:43:00,76.0,51.0,-100.00,SSE,165,0.0,1.0,41,-99.99,,,-99.99,,2013-07-26 02:43:00,
2013-07-25 20:11:00,75.0,51.0,-100.00,NNE,18,1.0,2.0,43,-99.99,,,-99.99,,2013-07-26 03:11:00,
2013-07-25 20:22:00,75.0,53.0,-100.00,North,8,1.0,2.0,46,-99.99,,,-99.99,,2013-07-26 03:22:00,
2013-07-25 20:32:00,74.0,54.0,-100.00,SW,224,0.0,2.0,50,-99.99,,,-99.99,,2013-07-26 03:32:00,
2013-07-25 20:53:00,73.0,53.0,-100.00,SE,137,2.0,3.0,49,-99.99,,,-99.99,,2013-07-26 03:53:00,
2013-07-25 21:02:00,72.0,55.0,-100.00,ESE,112,1.0,2.0,55,-99.99,,,-99.99,,2013-07-26 04:02:00,
2013-07-25 21:12:00,72.0,55.0,-100.00,ESE,112,1.0,2.0,55,-99.99,,,-99.99,,2013-07-26 04:12:00,
2013-07-25 21:22:00,70.0,55.0,-100.00,NW,311,0.0,1.0,60,-99.99,,,-99.99,,2013-07-26 04:22:00,
2013-07-25 21:32:00,70.0,55.0,-100.00,NW,311,0.0,1.0,60,-99.99,,,-99.99,,2013-07-26 04:32:00,
2013-07-25 21:42:00,69.0,55.0,-100.00,SW,220,0.0,1.0,60,-99.99,,,-99.99,,2013-07-26 04:42:00,
2013-07-25 21:53:00,69.0,56.0,-100.00,North,-999,0.0,0.0,63,-99.99,,,-99.99,,2013-07-26 04:53:00,
2013-07-25 22:12:00,68.0,54.0,-100.00,ENE,69,1.0,2.0,60,-99.99,,,-99.99,,2013-07-26 05:12:00,
2013-07-25 22:22:00,69.0,54.0,-100.00,South,175,2.0,3.0,59,-99.99,,,-99.99,,2013-07-26 05:22:00,
2013-07-25 22:32:00,69.0,53.0,-100.00,East,86,1.0,3.0,56,-99.99,,,-99.99,,2013-07-26 05:32:00,
2013-07-25 22:52:00,69.0,53.0,-100.00,ENE,76,1.0,3.0,57,-99.99,,,-99.99,,2013-07-26 05:52:00,
2013-07-25 23:11:00,68.0,54.0,-100.00,ENE,78,1.0,2.0,60,-99.99,,,-99.99,,2013-07-26 06:11:00,
2013-07-25 23:22:00,68.0,55.0,-100.00,ENE,69,0.0,2.0,63,-99.99,,,-99.99,,2013-07-26 06:22:00,
2013-07-25 23:33:00,68.0,54.0,-100.00,SE,142,0.0,1.0,61,-99.99,,,-99.99,,2013-07-26 06:33:00,
2013-07-25 23:43:00,68.0,54.0,-100.00,North,10,0.0,1.0,61,-99.99,,,-99.99,,2013-07-26 06:43:00,
2013-07-25 23:52:00,68.0,54.0,-100.00,North,10,0.0,1.0,61,-99.99,,,-99.99,,2013-07-26 06:52:00,